sensor_id;sensor_type;location;lat;lon;timestamp;pressure;altitude;pressure_sealevel;temperature;humidity
3150;BME280;32503;47.748;8.960;2023-02-01T00:02:13;97732.81;;;6.05;60.90
3150;BME280;32503;47.748;8.960;2023-02-01T00:04:40;97725.75;;;6.10;61.35
3150;BME280;32503;47.748;8.960;2023-02-01T00:07:07;97717.69;;;6.10;60.62
3150;BME280;32503;47.748;8.960;2023-02-01T00:09:35;97666.56;;;5.78;61.41
3150;BME280;32503;47.748;8.960;2023-02-01T00:12:03;97705.34;;;6.08;61.13
3150;BME280;32503;47.748;8.960;2023-02-01T00:14:30;97707.25;;;6.08;61.02
3150;BME280;32503;47.748;8.960;2023-02-01T00:17:04;97711.66;;;6.04;60.70
3150;BME280;32503;47.748;8.960;2023-02-01T00:19:32;97712.25;;;6.01;61.04
3150;BME280;32503;47.748;8.960;2023-02-01T00:21:59;97696.44;;;5.99;61.39
3150;BME280;32503;47.748;8.960;2023-02-01T00:24:26;97694.13;;;6.06;60.88
3150;BME280;32503;47.748;8.960;2023-02-01T00:26:55;97702.00;;;6.03;61.27
3150;BME280;32503;47.748;8.960;2023-02-01T00:29:22;97688.09;;;6.01;60.97
3150;BME280;32503;47.748;8.960;2023-02-01T00:31:50;97690.78;;;6.01;61.42
3150;BME280;32503;47.748;8.960;2023-02-01T00:34:19;97680.66;;;5.84;61.39
3150;BME280;32503;47.748;8.960;2023-02-01T00:36:46;97690.78;;;5.87;61.07
3150;BME280;32503;47.748;8.960;2023-02-01T00:39:14;97671.25;;;5.73;61.68
3150;BME280;32503;47.748;8.960;2023-02-01T00:41:41;97664.16;;;5.77;61.46
3150;BME280;32503;47.748;8.960;2023-02-01T00:44:10;97686.38;;;5.91;62.01
3150;BME280;32503;47.748;8.960;2023-02-01T00:46:37;97684.22;;;5.93;60.92
3150;BME280;32503;47.748;8.960;2023-02-01T00:49:04;97682.13;;;5.90;61.86
3150;BME280;32503;47.748;8.960;2023-02-01T00:51:32;97681.34;;;5.89;61.72
3150;BME280;32503;47.748;8.960;2023-02-01T00:54:00;97691.44;;;5.93;61.67
3150;BME280;32503;47.748;8.960;2023-02-01T00:56:27;97690.66;;;5.92;61.64
3150;BME280;32503;47.748;8.960;2023-02-01T00:58:54;97684.63;;;5.86;61.57
3150;BME280;32503;47.748;8.960;2023-02-01T01:01:25;97676.41;;;5.83;61.62
3150;BME280;32503;47.748;8.960;2023-02-01T01:03:54;97677.19;;;5.83;62.09
3150;BME280;32503;47.748;8.960;2023-02-01T01:06:25;97681.66;;;5.88;62.05
3150;BME280;32503;47.748;8.960;2023-02-01T01:08:53;97655.81;;;5.78;61.43
3150;BME280;32503;47.748;8.960;2023-02-01T01:11:22;97625.00;;;5.53;62.05
3150;BME280;32503;47.748;8.960;2023-02-01T01:13:52;97658.38;;;5.83;61.64
3150;BME280;32503;47.748;8.960;2023-02-01T01:16:23;97694.44;;;6.05;62.01
3150;BME280;32503;47.748;8.960;2023-02-01T01:18:51;97702.28;;;6.01;61.15
3150;BME280;32503;47.748;8.960;2023-02-01T01:21:19;97695.25;;;6.05;61.29
3150;BME280;32503;47.748;8.960;2023-02-01T01:23:47;97693.03;;;6.07;61.04
3150;BME280;32503;47.748;8.960;2023-02-01T01:26:16;97700.25;;;5.98;61.66
3150;BME280;32503;47.748;8.960;2023-02-01T01:28:44;97683.88;;;6.08;61.05
3150;BME280;32503;47.748;8.960;2023-02-01T01:31:14;97659.53;;;5.91;60.84
3150;BME280;32503;47.748;8.960;2023-02-01T01:33:43;97680.63;;;5.98;61.02
3150;BME280;32503;47.748;8.960;2023-02-01T01:36:11;97676.88;;;5.99;60.97
3150;BME280;32503;47.748;8.960;2023-02-01T01:38:39;97677.72;;;5.94;61.49
3150;BME280;32503;47.748;8.960;2023-02-01T01:41:07;97683.41;;;5.93;61.78
3150;BME280;32503;47.748;8.960;2023-02-01T01:43:54;97684.44;;;5.97;61.79
3150;BME280;32503;47.748;8.960;2023-02-01T01:46:24;97669.13;;;5.97;61.03
3150;BME280;32503;47.748;8.960;2023-02-01T01:49:01;97681.53;;;5.93;60.76
3150;BME280;32503;47.748;8.960;2023-02-01T01:51:32;97664.13;;;5.91;60.86
3150;BME280;32503;47.748;8.960;2023-02-01T01:54:06;97632.59;;;5.74;61.01
3150;BME280;32503;47.748;8.960;2023-02-01T01:56:35;97662.75;;;5.93;60.87
3150;BME280;32503;47.748;8.960;2023-02-01T01:59:02;97656.00;;;5.96;61.22
3150;BME280;32503;47.748;8.960;2023-02-01T02:01:31;97654.38;;;5.95;60.80
3150;BME280;32503;47.748;8.960;2023-02-01T02:04:00;97645.03;;;5.92;61.29
3150;BME280;32503;47.748;8.960;2023-02-01T02:06:37;97638.72;;;5.88;60.99
3150;BME280;32503;47.748;8.960;2023-02-01T02:09:05;97638.59;;;5.93;60.61
3150;BME280;32503;47.748;8.960;2023-02-01T02:11:33;97639.06;;;5.95;60.39
3150;BME280;32503;47.748;8.960;2023-02-01T02:14:00;97645.88;;;5.79;61.32
3150;BME280;32503;47.748;8.960;2023-02-01T02:16:51;97638.53;;;5.84;60.98
3150;BME280;32503;47.748;8.960;2023-02-01T02:22:46;97642.28;;;5.83;60.78
3150;BME280;32503;47.748;8.960;2023-02-01T02:25:33;97646.09;;;5.82;60.88
3150;BME280;32503;47.748;8.960;2023-02-01T02:31:40;97640.56;;;5.65;61.29
3150;BME280;32503;47.748;8.960;2023-02-01T02:34:18;97640.94;;;5.72;61.35
3150;BME280;32503;47.748;8.960;2023-02-01T02:37:01;97648.50;;;5.70;61.69
3150;BME280;32503;47.748;8.960;2023-02-01T02:39:41;97640.69;;;5.60;61.44
3150;BME280;32503;47.748;8.960;2023-02-01T02:42:17;97635.63;;;5.58;61.77
3150;BME280;32503;47.748;8.960;2023-02-01T02:45:09;97632.06;;;5.49;61.83
3150;BME280;32503;47.748;8.960;2023-02-01T02:48:06;97627.78;;;5.48;62.31
3150;BME280;32503;47.748;8.960;2023-02-01T02:50:39;97603.38;;;5.36;62.30
3150;BME280;32503;47.748;8.960;2023-02-01T02:53:32;97615.34;;;5.52;61.95
3150;BME280;32503;47.748;8.960;2023-02-01T02:56:21;97613.41;;;5.44;62.01
3150;BME280;32503;47.748;8.960;2023-02-01T02:59:08;97612.84;;;5.33;62.26
3150;BME280;32503;47.748;8.960;2023-02-01T03:01:54;97629.50;;;5.44;62.16
3150;BME280;32503;47.748;8.960;2023-02-01T03:04:39;97635.66;;;5.44;62.76
3150;BME280;32503;47.748;8.960;2023-02-01T03:07:15;97637.06;;;5.42;62.66
3150;BME280;32503;47.748;8.960;2023-02-01T03:10:03;97602.13;;;5.19;62.93
3150;BME280;32503;47.748;8.960;2023-02-01T03:12:37;97645.22;;;5.37;62.94
3150;BME280;32503;47.748;8.960;2023-02-01T03:15:31;97643.41;;;5.46;63.27
3150;BME280;32503;47.748;8.960;2023-02-01T03:18:01;97636.78;;;5.29;63.36
3150;BME280;32503;47.748;8.960;2023-02-01T03:20:30;97622.38;;;5.25;63.03
3150;BME280;32503;47.748;8.960;2023-02-01T03:23:00;97651.94;;;5.48;63.23
3150;BME280;32503;47.748;8.960;2023-02-01T03:25:30;97648.75;;;5.46;62.96
3150;BME280;32503;47.748;8.960;2023-02-01T03:28:01;97640.41;;;5.47;62.94
3150;BME280;32503;47.748;8.960;2023-02-01T03:30:33;97632.06;;;5.49;62.83
3150;BME280;32503;47.748;8.960;2023-02-01T03:33:06;97591.91;;;5.21;63.23
3150;BME280;32503;47.748;8.960;2023-02-01T03:35:44;97623.91;;;5.54;63.27
3150;BME280;32503;47.748;8.960;2023-02-01T03:38:20;97582.03;;;5.30;62.79
3150;BME280;32503;47.748;8.960;2023-02-01T03:40:53;97634.13;;;5.52;63.62
3150;BME280;32503;47.748;8.960;2023-02-01T03:43:23;97623.69;;;5.50;63.53
3150;BME280;32503;47.748;8.960;2023-02-01T03:45:59;97622.13;;;5.49;63.07
3150;BME280;32503;47.748;8.960;2023-02-01T03:48:29;97622.44;;;5.48;63.28
3150;BME280;32503;47.748;8.960;2023-02-01T03:50:59;97624.72;;;5.41;63.67
3150;BME280;32503;47.748;8.960;2023-02-01T03:53:29;97637.44;;;5.49;63.50
3150;BME280;32503;47.748;8.960;2023-02-01T03:55:57;97631.56;;;5.47;63.23
3150;BME280;32503;47.748;8.960;2023-02-01T03:58:25;97635.84;;;5.48;63.92
3150;BME280;32503;47.748;8.960;2023-02-01T04:00:55;97605.88;;;5.32;63.77
3150;BME280;32503;47.748;8.960;2023-02-01T04:03:23;97630.78;;;5.46;63.61
3150;BME280;32503;47.748;8.960;2023-02-01T04:05:51;97635.84;;;5.48;64.09
3150;BME280;32503;47.748;8.960;2023-02-01T04:08:20;97615.72;;;5.37;63.59
3150;BME280;32503;47.748;8.960;2023-02-01T04:10:49;97644.97;;;5.47;64.29
3150;BME280;32503;47.748;8.960;2023-02-01T04:13:16;97648.75;;;5.46;63.88
3150;BME280;32503;47.748;8.960;2023-02-01T04:15:43;97651.16;;;5.47;64.40
3150;BME280;32503;47.748;8.960;2023-02-01T04:18:11;97657.41;;;5.43;64.30
3150;BME280;32503;47.748;8.960;2023-02-01T04:20:38;97665.44;;;5.43;65.05
3150;BME280;32503;47.748;8.960;2023-02-01T04:23:05;97675.56;;;5.46;64.17
3150;BME280;32503;47.748;8.960;2023-02-01T04:25:32;97665.44;;;5.43;64.91
3150;BME280;32503;47.748;8.960;2023-02-01T04:28:00;97663.16;;;5.50;64.34
3150;BME280;32503;47.748;8.960;2023-02-01T04:30:27;97666.84;;;5.54;64.84
3150;BME280;32503;47.748;8.960;2023-02-01T04:32:54;97661.47;;;5.54;64.17
3150;BME280;32503;47.748;8.960;2023-02-01T04:35:21;97669.28;;;5.50;64.60
3150;BME280;32503;47.748;8.960;2023-02-01T04:37:48;97684.50;;;5.55;64.84
3150;BME280;32503;47.748;8.960;2023-02-01T04:40:16;97687.78;;;5.52;64.08
3150;BME280;32503;47.748;8.960;2023-02-01T04:42:43;97706.16;;;5.59;64.38
3150;BME280;32503;47.748;8.960;2023-02-01T04:45:12;97700.59;;;5.55;64.13
3150;BME280;32503;47.748;8.960;2023-02-01T04:47:39;97703.47;;;5.59;64.40
3150;BME280;32503;47.748;8.960;2023-02-01T04:50:07;97704.44;;;5.63;63.84
3150;BME280;32503;47.748;8.960;2023-02-01T04:52:36;97703.75;;;5.57;64.18
3150;BME280;32503;47.748;8.960;2023-02-01T04:55:03;97706.03;;;5.64;63.95
3150;BME280;32503;47.748;8.960;2023-02-01T04:57:31;97698.97;;;5.68;63.92
3150;BME280;32503;47.748;8.960;2023-02-01T04:59:58;97669.63;;;5.49;63.96
3150;BME280;32503;47.748;8.960;2023-02-01T05:02:26;97675.44;;;5.65;64.11
3150;BME280;32503;47.748;8.960;2023-02-01T05:04:53;97673.38;;;5.62;64.13
3150;BME280;32503;47.748;8.960;2023-02-01T05:07:21;97668.78;;;5.62;64.23
3150;BME280;32503;47.748;8.960;2023-02-01T05:09:48;97662.25;;;5.55;64.86
3150;BME280;32503;47.748;8.960;2023-02-01T05:12:15;97658.78;;;5.54;64.69
3150;BME280;32503;47.748;8.960;2023-02-01T05:15:00;97662.56;;;5.53;64.63
3150;BME280;32503;47.748;8.960;2023-02-01T05:17:28;97649.53;;;5.46;64.45
3150;BME280;32503;47.748;8.960;2023-02-01T05:19:55;97643.22;;;5.42;64.72
3150;BME280;32503;47.748;8.960;2023-02-01T05:22:22;97643.69;;;5.44;65.07
3150;BME280;32503;47.748;8.960;2023-02-01T05:24:49;97646.38;;;5.44;64.92
3150;BME280;32503;47.748;8.960;2023-02-01T05:27:16;97648.66;;;5.51;64.18
3150;BME280;32503;47.748;8.960;2023-02-01T05:29:43;97665.03;;;5.49;64.69
3150;BME280;32503;47.748;8.960;2023-02-01T05:32:11;97664.56;;;5.47;64.92
3150;BME280;32503;47.748;8.960;2023-02-01T05:34:39;97669.00;;;5.52;64.70
3150;BME280;32503;47.748;8.960;2023-02-01T05:37:06;97684.50;;;5.55;64.69
3150;BME280;32503;47.748;8.960;2023-02-01T05:39:34;97674.56;;;5.56;64.89
3150;BME280;32503;47.748;8.960;2023-02-01T05:42:01;97691.34;;;5.61;64.10
3150;BME280;32503;47.748;8.960;2023-02-01T05:44:28;97690.84;;;5.59;64.16
3150;BME280;32503;47.748;8.960;2023-02-01T05:46:55;97709.75;;;5.54;64.37
3150;BME280;32503;47.748;8.960;2023-02-01T05:49:22;97703.16;;;5.60;64.50
3150;BME280;32503;47.748;8.960;2023-02-01T05:51:50;97691.66;;;5.60;64.13
3150;BME280;32503;47.748;8.960;2023-02-01T05:54:17;97675.56;;;5.60;64.34
3150;BME280;32503;47.748;8.960;2023-02-01T05:56:44;97673.16;;;5.58;64.07
3150;BME280;32503;47.748;8.960;2023-02-01T05:59:11;97686.09;;;5.56;64.34
3150;BME280;32503;47.748;8.960;2023-02-01T06:01:38;97665.03;;;5.49;64.52
3150;BME280;32503;47.748;8.960;2023-02-01T06:04:05;97662.84;;;5.51;64.40
3150;BME280;32503;47.748;8.960;2023-02-01T06:06:32;97674.34;;;5.52;64.72
3150;BME280;32503;47.748;8.960;2023-02-01T06:09:01;97675.38;;;5.56;64.12
3150;BME280;32503;47.748;8.960;2023-02-01T06:11:28;97642.00;;;5.35;64.22
3150;BME280;32503;47.748;8.960;2023-02-01T06:13:56;97679.81;;;5.61;64.30
3150;BME280;32503;47.748;8.960;2023-02-01T06:16:23;97687.78;;;5.52;64.98
3150;BME280;32503;47.748;8.960;2023-02-01T06:18:50;97688.47;;;5.58;64.43
3150;BME280;32503;47.748;8.960;2023-02-01T06:21:17;97695.31;;;5.50;64.79
3150;BME280;32503;47.748;8.960;2023-02-01T06:23:49;97701.28;;;5.47;65.27
3150;BME280;32503;47.748;8.960;2023-02-01T06:26:17;97703.97;;;5.47;65.20
3150;BME280;32503;47.748;8.960;2023-02-01T06:28:45;97710.34;;;5.51;65.51
3150;BME280;32503;47.748;8.960;2023-02-01T06:31:12;97716.09;;;5.44;65.31
3150;BME280;32503;47.748;8.960;2023-02-01T06:33:39;97725.84;;;5.40;65.59
3150;BME280;32503;47.748;8.960;2023-02-01T06:36:10;97720.47;;;5.40;65.00
3150;BME280;32503;47.748;8.960;2023-02-01T06:38:37;97721.47;;;5.44;64.93
3150;BME280;32503;47.748;8.960;2023-02-01T06:41:05;97722.25;;;5.45;65.30
3150;BME280;32503;47.748;8.960;2023-02-01T06:43:34;97716.41;;;5.43;65.82
3150;BME280;32503;47.748;8.960;2023-02-01T06:46:05;97719.66;;;5.40;65.19
3150;BME280;32503;47.748;8.960;2023-02-01T06:48:33;97716.88;;;5.45;65.16
3150;BME280;32503;47.748;8.960;2023-02-01T06:51:01;97718.00;;;5.44;65.38
3150;BME280;32503;47.748;8.960;2023-02-01T06:53:28;97719.28;;;5.46;65.75
3150;BME280;32503;47.748;8.960;2023-02-01T06:55:57;97713.91;;;5.32;65.29
3150;BME280;32503;47.748;8.960;2023-02-01T06:58:27;97728.19;;;5.56;64.83
3150;BME280;32503;47.748;8.960;2023-02-01T07:00:55;97738.81;;;5.61;64.59
3150;BME280;32503;47.748;8.960;2023-02-01T07:03:23;97744.00;;;5.57;65.11
3150;BME280;32503;47.748;8.960;2023-02-01T07:05:56;97748.09;;;5.55;65.13
3150;BME280;32503;47.748;8.960;2023-02-01T07:08:24;97755.84;;;5.56;65.65
3150;BME280;32503;47.748;8.960;2023-02-01T07:10:51;97748.88;;;5.55;65.12
3150;BME280;32503;47.748;8.960;2023-02-01T07:13:19;97748.69;;;5.51;65.04
3150;BME280;32503;47.748;8.960;2023-02-01T07:15:46;97761.00;;;5.53;64.87
3150;BME280;32503;47.748;8.960;2023-02-01T07:18:15;97754.25;;;5.55;65.06
3150;BME280;32503;47.748;8.960;2023-02-01T07:20:42;97757.81;;;5.50;65.03
3150;BME280;32503;47.748;8.960;2023-02-01T07:23:10;97758.03;;;5.54;65.57
3150;BME280;32503;47.748;8.960;2023-02-01T07:25:37;97757.13;;;5.59;64.84
3150;BME280;32503;47.748;8.960;2023-02-01T07:28:04;97756.03;;;5.60;65.37
3150;BME280;32503;47.748;8.960;2023-02-01T07:30:31;97749.25;;;5.62;64.59
3150;BME280;32503;47.748;8.960;2023-02-01T07:32:58;97749.56;;;5.47;64.94
3150;BME280;32503;47.748;8.960;2023-02-01T07:35:28;97736.78;;;5.44;64.71
3150;BME280;32503;47.748;8.960;2023-02-01T07:37:57;97748.00;;;5.46;64.75
3150;BME280;32503;47.748;8.960;2023-02-01T07:40:25;97749.69;;;5.42;65.53
3150;BME280;32503;47.748;8.960;2023-02-01T07:42:54;97717.81;;;5.26;65.62
3150;BME280;32503;47.748;8.960;2023-02-01T07:45:22;97742.34;;;5.47;65.47
3150;BME280;32503;47.748;8.960;2023-02-01T07:47:51;97739.56;;;5.53;64.79
3150;BME280;32503;47.748;8.960;2023-02-01T07:50:18;97747.78;;;5.56;65.02
3150;BME280;32503;47.748;8.960;2023-02-01T07:52:47;97724.06;;;5.49;64.88
3150;BME280;32503;47.748;8.960;2023-02-01T07:55:14;97710.53;;;5.41;65.02
3150;BME280;32503;47.748;8.960;2023-02-01T07:57:41;97717.69;;;5.45;64.79
3150;BME280;32503;47.748;8.960;2023-02-01T08:00:09;97699.03;;;5.54;64.90
3150;BME280;32503;47.748;8.960;2023-02-01T08:02:54;97718.28;;;5.56;65.07
3150;BME280;32503;47.748;8.960;2023-02-01T08:05:24;97743.03;;;5.53;65.41
3150;BME280;32503;47.748;8.960;2023-02-01T08:07:52;97750.09;;;5.49;65.44
3150;BME280;32503;47.748;8.960;2023-02-01T08:10:20;97753.66;;;5.58;65.79
3150;BME280;32503;47.748;8.960;2023-02-01T08:12:47;97757.91;;;5.59;65.18
3150;BME280;32503;47.748;8.960;2023-02-01T08:15:14;97759.78;;;5.73;65.34
3150;BME280;32503;47.748;8.960;2023-02-01T08:17:47;97728.09;;;5.47;65.23
3150;BME280;32503;47.748;8.960;2023-02-01T08:20:14;97736.34;;;5.64;65.27
3150;BME280;32503;47.748;8.960;2023-02-01T08:22:42;97735.94;;;5.71;64.69
3150;BME280;32503;47.748;8.960;2023-02-01T08:25:11;97706.47;;;5.43;64.92
3150;BME280;32503;47.748;8.960;2023-02-01T08:27:38;97728.19;;;5.69;65.43
3150;BME280;32503;47.748;8.960;2023-02-01T08:30:07;97723.53;;;5.61;65.17
3150;BME280;32503;47.748;8.960;2023-02-01T08:32:34;97744.38;;;5.78;65.03
3150;BME280;32503;47.748;8.960;2023-02-01T08:35:04;97743.91;;;5.62;65.78
3150;BME280;32503;47.748;8.960;2023-02-01T08:37:31;97737.53;;;5.72;65.30
3150;BME280;32503;47.748;8.960;2023-02-01T08:39:58;97740.22;;;5.72;65.25
3150;BME280;32503;47.748;8.960;2023-02-01T08:42:27;97748.56;;;5.70;65.69
3150;BME280;32503;47.748;8.960;2023-02-01T08:45:11;97755.00;;;5.69;65.79
3150;BME280;32503;47.748;8.960;2023-02-01T08:47:39;97760.56;;;5.73;65.78
3150;BME280;32503;47.748;8.960;2023-02-01T08:50:08;97761.97;;;5.70;65.51
3150;BME280;32503;47.748;8.960;2023-02-01T08:52:35;97774.66;;;5.79;65.42
3150;BME280;32503;47.748;8.960;2023-02-01T08:55:03;97773.50;;;5.85;65.68
3150;BME280;32503;47.748;8.960;2023-02-01T08:57:31;97772.50;;;5.81;65.19
3150;BME280;32503;47.748;8.960;2023-02-01T08:59:58;97775.50;;;5.79;65.65
3150;BME280;32503;47.748;8.960;2023-02-01T09:02:26;97791.88;;;5.78;65.73
3150;BME280;32503;47.748;8.960;2023-02-01T09:04:53;97787.88;;;5.89;65.79
3150;BME280;32503;47.748;8.960;2023-02-01T09:07:20;97791.78;;;5.83;65.54
3150;BME280;32503;47.748;8.960;2023-02-01T09:09:47;97808.06;;;5.86;65.30
3150;BME280;32503;47.748;8.960;2023-02-01T09:12:14;97811.56;;;5.87;65.65
3150;BME280;32503;47.748;8.960;2023-02-01T09:14:42;97806.97;;;5.87;65.42
3150;BME280;32503;47.748;8.960;2023-02-01T09:17:09;97806.28;;;5.82;65.97
3150;BME280;32503;47.748;8.960;2023-02-01T09:19:36;97808.06;;;5.86;65.52
3150;BME280;32503;47.748;8.960;2023-02-01T09:22:03;97804.28;;;5.87;65.37
3150;BME280;32503;47.748;8.960;2023-02-01T09:24:30;97802.31;;;5.93;65.26
3150;BME280;32503;47.748;8.960;2023-02-01T09:26:58;97795.16;;;5.88;65.94
3150;BME280;32503;47.748;8.960;2023-02-01T09:29:25;97775.56;;;5.88;65.83
3150;BME280;32503;47.748;8.960;2023-02-01T09:31:53;97782.31;;;5.85;66.19
3150;BME280;32503;47.748;8.960;2023-02-01T09:34:21;97781.84;;;5.83;65.84
3150;BME280;32503;47.748;8.960;2023-02-01T09:36:48;97771.28;;;5.87;66.18
3150;BME280;32503;47.748;8.960;2023-02-01T09:39:15;97775.28;;;5.89;65.82
3150;BME280;32503;47.748;8.960;2023-02-01T09:42:02;97771.69;;;5.94;65.64
3150;BME280;32503;47.748;8.960;2023-02-01T09:44:46;97788.81;;;5.98;65.59
3150;BME280;32503;47.748;8.960;2023-02-01T09:47:19;97791.25;;;6.08;65.16
3150;BME280;32503;47.748;8.960;2023-02-01T09:49:54;97762.94;;;6.02;64.76
3150;BME280;32503;47.748;8.960;2023-02-01T09:52:29;97786.78;;;6.18;64.13
3150;BME280;32503;47.748;8.960;2023-02-01T09:55:03;97796.56;;;6.36;64.49
3150;BME280;32503;47.748;8.960;2023-02-01T09:57:44;97786.03;;;6.26;64.32
3150;BME280;32503;47.748;8.960;2023-02-01T10:00:18;97791.31;;;6.31;63.83
3150;BME280;32503;47.748;8.960;2023-02-01T10:02:48;97783.72;;;6.33;64.49
3150;BME280;32503;47.748;8.960;2023-02-01T10:05:23;97762.28;;;6.19;64.33
3150;BME280;32503;47.748;8.960;2023-02-01T10:08:00;97794.78;;;6.32;63.60
3150;BME280;32503;47.748;8.960;2023-02-01T10:10:37;97785.34;;;6.34;63.54
3150;BME280;32503;47.748;8.960;2023-02-01T10:13:27;97779.00;;;6.30;63.43
3150;BME280;32503;47.748;8.960;2023-02-01T10:16:10;97779.47;;;6.32;63.31
3150;BME280;32503;47.748;8.960;2023-02-01T10:18:57;97779.66;;;6.36;63.88
3150;BME280;32503;47.748;8.960;2023-02-01T10:21:39;97773.88;;;6.42;63.14
3150;BME280;32503;47.748;8.960;2023-02-01T10:24:28;97767.56;;;6.47;63.62
3150;BME280;32503;47.748;8.960;2023-02-01T10:27:09;97773.72;;;6.48;63.58
3150;BME280;32503;47.748;8.960;2023-02-01T10:29:41;97717.34;;;6.25;62.53
3150;BME280;32503;47.748;8.960;2023-02-01T10:32:14;97745.47;;;6.50;62.63
3150;BME280;32503;47.748;8.960;2023-02-01T10:34:46;97779.94;;;6.71;62.17
3150;BME280;32503;47.748;8.960;2023-02-01T10:37:27;97776.31;;;6.75;62.07
3150;BME280;32503;47.748;8.960;2023-02-01T10:39:56;97754.25;;;6.64;61.58
3150;BME280;32503;47.748;8.960;2023-02-01T10:42:26;97763.03;;;6.79;61.79
3150;BME280;32503;47.748;8.960;2023-02-01T10:44:56;97766.22;;;6.81;62.38
3150;BME280;32503;47.748;8.960;2023-02-01T10:47:25;97763.84;;;6.79;62.37
3150;BME280;32503;47.748;8.960;2023-02-01T10:50:02;97773.72;;;6.93;61.59
3150;BME280;32503;47.748;8.960;2023-02-01T10:52:39;97762.22;;;7.01;61.61
3150;BME280;32503;47.748;8.960;2023-02-01T10:55:31;97753.59;;;7.21;60.69
3150;BME280;32503;47.748;8.960;2023-02-01T10:58:01;97761.91;;;7.43;60.51
3150;BME280;32503;47.748;8.960;2023-02-01T11:00:44;97750.75;;;7.58;60.01
3150;BME280;32503;47.748;8.960;2023-02-01T11:03:34;97712.44;;;7.52;59.12
3150;BME280;32503;47.748;8.960;2023-02-01T11:06:17;97741.94;;;8.01;58.75
3150;BME280;32503;47.748;8.960;2023-02-01T11:08:50;97743.22;;;8.04;58.72
3150;BME280;32503;47.748;8.960;2023-02-01T11:11:18;97730.41;;;8.53;58.05
3150;BME280;32503;47.748;8.960;2023-02-01T11:13:54;97739.25;;;8.62;57.19
3150;BME280;32503;47.748;8.960;2023-02-01T11:16:21;97742.59;;;8.68;56.66
3150;BME280;32503;47.748;8.960;2023-02-01T11:18:54;97734.31;;;8.82;56.37
3150;BME280;32503;47.748;8.960;2023-02-01T11:21:23;97735.31;;;8.68;56.18
3150;BME280;32503;47.748;8.960;2023-02-01T11:23:50;97730.25;;;8.58;56.44
3150;BME280;32503;47.748;8.960;2023-02-01T11:26:22;97724.03;;;8.66;58.60
3150;BME280;32503;47.748;8.960;2023-02-01T11:28:58;97714.53;;;8.60;57.40
3150;BME280;32503;47.748;8.960;2023-02-01T11:31:27;97695.38;;;8.35;57.42
3150;BME280;32503;47.748;8.960;2023-02-01T11:33:59;97714.06;;;8.41;56.92
3150;BME280;32503;47.748;8.960;2023-02-01T11:36:31;97709.16;;;8.34;57.13
3150;BME280;32503;47.748;8.960;2023-02-01T11:39:23;97715.97;;;8.31;57.91
3150;BME280;32503;47.748;8.960;2023-02-01T11:42:04;97716.13;;;8.26;57.48
3150;BME280;32503;47.748;8.960;2023-02-01T11:44:34;97721.84;;;8.16;57.61
3150;BME280;32503;47.748;8.960;2023-02-01T11:47:24;97713.91;;;8.20;58.12
3150;BME280;32503;47.748;8.960;2023-02-01T11:49:53;97703.94;;;8.11;58.21
3150;BME280;32503;47.748;8.960;2023-02-01T11:52:36;97678.75;;;7.81;59.05
3150;BME280;32503;47.748;8.960;2023-02-01T11:55:44;97708.69;;;7.97;58.81
3150;BME280;32503;47.748;8.960;2023-02-01T11:58:31;97718.03;;;8.00;58.57
3150;BME280;32503;47.748;8.960;2023-02-01T12:04:21;97707.28;;;8.00;58.43
3150;BME280;32503;47.748;8.960;2023-02-01T12:06:56;97710.13;;;7.94;59.00
3150;BME280;32503;47.748;8.960;2023-02-01T12:09:41;97682.06;;;7.78;59.21
3150;BME280;32503;47.748;8.960;2023-02-01T12:12:17;97695.84;;;8.03;59.32
3150;BME280;32503;47.748;8.960;2023-02-01T12:15:05;97690.47;;;7.94;58.48
3150;BME280;32503;47.748;8.960;2023-02-01T12:17:54;97687.91;;;7.97;58.72
3150;BME280;32503;47.748;8.960;2023-02-01T12:20:58;97675.91;;;7.86;58.89
3150;BME280;32503;47.748;8.960;2023-02-01T12:23:52;97671.13;;;8.01;58.88
3150;BME280;32503;47.748;8.960;2023-02-01T12:26:53;97666.88;;;8.00;58.81
3150;BME280;32503;47.748;8.960;2023-02-01T12:29:58;97650.22;;;7.97;58.40
3150;BME280;32503;47.748;8.960;2023-02-01T12:32:51;97655.75;;;8.10;58.57
3150;BME280;32503;47.748;8.960;2023-02-01T12:35:44;97644.22;;;8.01;58.18
3150;BME280;32503;47.748;8.960;2023-02-01T12:38:39;97636.13;;;8.01;58.59
3150;BME280;32503;47.748;8.960;2023-02-01T12:41:38;97646.28;;;8.04;58.44
3150;BME280;32503;47.748;8.960;2023-02-01T12:44:18;97644.19;;;8.18;57.93
3150;BME280;32503;47.748;8.960;2023-02-01T12:46:52;97604.94;;;8.00;57.07
3150;BME280;32503;47.748;8.960;2023-02-01T12:49:29;97638.47;;;8.28;56.36
3150;BME280;32503;47.748;8.960;2023-02-01T12:52:06;97644.50;;;8.16;57.16
3150;BME280;32503;47.748;8.960;2023-02-01T12:54:40;97640.41;;;8.19;56.10
3150;BME280;32503;47.748;8.960;2023-02-01T12:57:14;97636.88;;;8.27;54.92
3150;BME280;32503;47.748;8.960;2023-02-01T12:59:49;97607.63;;;8.17;55.12
3150;BME280;32503;47.748;8.960;2023-02-01T13:02:25;97612.19;;;8.08;55.45
3150;BME280;32503;47.748;8.960;2023-02-01T13:05:01;97628.19;;;8.22;54.95
3150;BME280;32503;47.748;8.960;2023-02-01T13:07:34;97621.53;;;8.28;54.69
3150;BME280;32503;47.748;8.960;2023-02-01T13:10:13;97621.53;;;8.37;54.19
3150;BME280;32503;47.748;8.960;2023-02-01T13:12:49;97618.16;;;8.40;54.25
3150;BME280;32503;47.748;8.960;2023-02-01T13:15:26;97605.69;;;8.44;53.49
3150;BME280;32503;47.748;8.960;2023-02-01T13:17:58;97605.81;;;8.56;52.95
3150;BME280;32503;47.748;8.960;2023-02-01T13:20:31;97610.16;;;8.69;52.50
3150;BME280;32503;47.748;8.960;2023-02-01T13:23:04;97604.28;;;8.76;53.33
3150;BME280;32503;47.748;8.960;2023-02-01T13:25:37;97616.81;;;8.81;52.72
3150;BME280;32503;47.748;8.960;2023-02-01T13:28:12;97587.81;;;8.69;52.79
3150;BME280;32503;47.748;8.960;2023-02-01T13:31:08;97616.03;;;8.71;52.60
3150;BME280;32503;47.748;8.960;2023-02-01T13:33:56;97611.31;;;8.68;53.18
3150;BME280;32503;47.748;8.960;2023-02-01T13:36:56;97581.78;;;8.07;53.69
3150;BME280;32503;47.748;8.960;2023-02-01T13:39:55;97621.25;;;7.94;54.46
3150;BME280;32503;47.748;8.960;2023-02-01T13:42:27;97619.66;;;8.02;54.78
3150;BME280;32503;47.748;8.960;2023-02-01T13:44:59;97598.28;;;7.97;54.86
3150;BME280;32503;47.748;8.960;2023-02-01T13:47:32;97627.91;;;8.06;54.97
3150;BME280;32503;47.748;8.960;2023-02-01T13:50:03;97629.97;;;8.00;55.00
3150;BME280;32503;47.748;8.960;2023-02-01T13:52:40;97594.19;;;7.65;54.59
3150;BME280;32503;47.748;8.960;2023-02-01T13:55:29;97582.97;;;7.71;54.98
3150;BME280;32503;47.748;8.960;2023-02-01T13:58:14;97625.06;;;7.93;54.99
3150;BME280;32503;47.748;8.960;2023-02-01T14:00:43;97600.81;;;7.76;54.90
3150;BME280;32503;47.748;8.960;2023-02-01T14:03:19;97602.44;;;7.77;54.83